sensor_id;sensor_type;location;lat;lon;timestamp;P1;durP1;ratioP1;P2;durP2;ratioP2
23228;SDS011;11783;50.350;6.576;2023-02-02T00:01:50;17.67;;;7.20;;
23228;SDS011;11783;50.350;6.576;2023-02-02T00:04:23;17.55;;;6.45;;
23228;SDS011;11783;50.350;6.576;2023-02-02T00:06:53;14.38;;;6.63;;
23228;SDS011;11783;50.350;6.576;2023-02-02T00:09:21;13.73;;;6.93;;
23228;SDS011;11783;50.350;6.576;2023-02-02T00:11:47;17.55;;;7.13;;
23228;SDS011;11783;50.350;6.576;2023-02-02T00:14:15;17.50;;;7.05;;
23228;SDS011;11783;50.350;6.576;2023-02-02T00:16:42;15.23;;;7.22;;
23228;SDS011;11783;50.350;6.576;2023-02-02T00:21:37;18.40;;;7.70;;
23228;SDS011;11783;50.350;6.576;2023-02-02T00:24:04;21.17;;;7.78;;
23228;SDS011;11783;50.350;6.576;2023-02-02T00:26:30;24.77;;;9.13;;
23228;SDS011;11783;50.350;6.576;2023-02-02T00:28:55;17.58;;;8.30;;
23228;SDS011;11783;50.350;6.576;2023-02-02T00:31:21;17.98;;;7.38;;
23228;SDS011;11783;50.350;6.576;2023-02-02T00:33:47;17.42;;;7.13;;
23228;SDS011;11783;50.350;6.576;2023-02-02T00:36:16;17.10;;;7.50;;
23228;SDS011;11783;50.350;6.576;2023-02-02T00:38:42;14.25;;;6.95;;
23228;SDS011;11783;50.350;6.576;2023-02-02T00:41:08;14.35;;;6.35;;
23228;SDS011;11783;50.350;6.576;2023-02-02T00:43:33;15.40;;;6.47;;
23228;SDS011;11783;50.350;6.576;2023-02-02T00:45:59;22.40;;;7.03;;
23228;SDS011;11783;50.350;6.576;2023-02-02T00:48:24;13.63;;;6.35;;
23228;SDS011;11783;50.350;6.576;2023-02-02T00:50:50;15.75;;;7.32;;
23228;SDS011;11783;50.350;6.576;2023-02-02T00:53:19;16.13;;;7.10;;
23228;SDS011;11783;50.350;6.576;2023-02-02T00:55:44;19.55;;;7.43;;
23228;SDS011;11783;50.350;6.576;2023-02-02T00:58:10;16.45;;;7.18;;
23228;SDS011;11783;50.350;6.576;2023-02-02T01:00:35;21.48;;;7.35;;
23228;SDS011;11783;50.350;6.576;2023-02-02T01:03:01;21.55;;;8.77;;
23228;SDS011;11783;50.350;6.576;2023-02-02T01:05:31;22.60;;;7.53;;
23228;SDS011;11783;50.350;6.576;2023-02-02T01:07:57;21.92;;;7.68;;
23228;SDS011;11783;50.350;6.576;2023-02-02T01:10:23;15.70;;;7.60;;
23228;SDS011;11783;50.350;6.576;2023-02-02T01:12:48;17.90;;;8.40;;
23228;SDS011;11783;50.350;6.576;2023-02-02T01:15:16;19.70;;;8.38;;
23228;SDS011;11783;50.350;6.576;2023-02-02T01:17:42;18.85;;;7.68;;
23228;SDS011;11783;50.350;6.576;2023-02-02T01:20:09;20.42;;;8.00;;
23228;SDS011;11783;50.350;6.576;2023-02-02T01:22:41;19.33;;;8.30;;
23228;SDS011;11783;50.350;6.576;2023-02-02T01:25:10;22.23;;;7.57;;
23228;SDS011;11783;50.350;6.576;2023-02-02T01:27:35;20.65;;;7.55;;
23228;SDS011;11783;50.350;6.576;2023-02-02T01:30:04;17.90;;;7.60;;
23228;SDS011;11783;50.350;6.576;2023-02-02T01:32:29;21.08;;;7.60;;
23228;SDS011;11783;50.350;6.576;2023-02-02T01:34:58;16.55;;;7.35;;
23228;SDS011;11783;50.350;6.576;2023-02-02T01:37:23;16.85;;;7.32;;
23228;SDS011;11783;50.350;6.576;2023-02-02T01:39:48;21.77;;;7.13;;
23228;SDS011;11783;50.350;6.576;2023-02-02T01:42:15;18.38;;;6.85;;
23228;SDS011;11783;50.350;6.576;2023-02-02T01:47:41;20.42;;;6.63;;
23228;SDS011;11783;50.350;6.576;2023-02-02T01:50:13;13.88;;;6.85;;
23228;SDS011;11783;50.350;6.576;2023-02-02T01:52:41;21.90;;;7.38;;
23228;SDS011;11783;50.350;6.576;2023-02-02T01:55:10;18.65;;;7.13;;
23228;SDS011;11783;50.350;6.576;2023-02-02T02:00:29;14.93;;;6.03;;
23228;SDS011;11783;50.350;6.576;2023-02-02T02:03:04;18.27;;;6.07;;
23228;SDS011;11783;50.350;6.576;2023-02-02T02:05:39;15.00;;;5.90;;
23228;SDS011;11783;50.350;6.576;2023-02-02T02:08:10;16.25;;;6.00;;
23228;SDS011;11783;50.350;6.576;2023-02-02T02:10:41;17.65;;;5.43;;
23228;SDS011;11783;50.350;6.576;2023-02-02T02:13:07;13.65;;;5.15;;
23228;SDS011;11783;50.350;6.576;2023-02-02T02:15:34;12.30;;;4.93;;
23228;SDS011;11783;50.350;6.576;2023-02-02T02:18:39;11.00;;;4.55;;
23228;SDS011;11783;50.350;6.576;2023-02-02T02:30:07;13.35;;;4.68;;
23228;SDS011;11783;50.350;6.576;2023-02-02T02:32:45;12.13;;;4.25;;
23228;SDS011;11783;50.350;6.576;2023-02-02T02:35:30;11.85;;;4.60;;
23228;SDS011;11783;50.350;6.576;2023-02-02T02:40:28;13.63;;;4.90;;
23228;SDS011;11783;50.350;6.576;2023-02-02T02:43:01;13.98;;;4.70;;
23228;SDS011;11783;50.350;6.576;2023-02-02T02:45:31;18.02;;;5.47;;
23228;SDS011;11783;50.350;6.576;2023-02-02T02:47:57;13.13;;;5.65;;
23228;SDS011;11783;50.350;6.576;2023-02-02T02:53:15;20.55;;;6.22;;
23228;SDS011;11783;50.350;6.576;2023-02-02T02:56:07;19.77;;;6.10;;
23228;SDS011;11783;50.350;6.576;2023-02-02T03:01:09;17.30;;;6.55;;
23228;SDS011;11783;50.350;6.576;2023-02-02T03:06:25;19.38;;;5.70;;
23228;SDS011;11783;50.350;6.576;2023-02-02T03:09:00;13.65;;;5.38;;
23228;SDS011;11783;50.350;6.576;2023-02-02T03:11:30;12.85;;;5.40;;
23228;SDS011;11783;50.350;6.576;2023-02-02T03:13:55;12.73;;;5.55;;
23228;SDS011;11783;50.350;6.576;2023-02-02T03:16:21;14.95;;;5.10;;
23228;SDS011;11783;50.350;6.576;2023-02-02T03:18:46;14.65;;;5.20;;
23228;SDS011;11783;50.350;6.576;2023-02-02T03:21:12;13.68;;;5.43;;
23228;SDS011;11783;50.350;6.576;2023-02-02T03:23:40;15.38;;;5.15;;
23228;SDS011;11783;50.350;6.576;2023-02-02T03:26:05;13.65;;;5.32;;
23228;SDS011;11783;50.350;6.576;2023-02-02T03:28:33;11.00;;;5.07;;
23228;SDS011;11783;50.350;6.576;2023-02-02T03:31:02;14.88;;;5.05;;
23228;SDS011;11783;50.350;6.576;2023-02-02T03:33:32;13.00;;;4.60;;
23228;SDS011;11783;50.350;6.576;2023-02-02T03:36:00;15.60;;;5.82;;
23228;SDS011;11783;50.350;6.576;2023-02-02T03:38:26;19.90;;;5.55;;
23228;SDS011;11783;50.350;6.576;2023-02-02T03:40:51;15.90;;;5.50;;
23228;SDS011;11783;50.350;6.576;2023-02-02T03:43:21;17.05;;;5.72;;
23228;SDS011;11783;50.350;6.576;2023-02-02T03:45:47;19.15;;;6.43;;
23228;SDS011;11783;50.350;6.576;2023-02-02T03:48:21;15.68;;;5.88;;
23228;SDS011;11783;50.350;6.576;2023-02-02T03:50:49;14.20;;;6.13;;
23228;SDS011;11783;50.350;6.576;2023-02-02T03:53:18;20.73;;;7.18;;
23228;SDS011;11783;50.350;6.576;2023-02-02T03:55:46;13.07;;;6.38;;
23228;SDS011;11783;50.350;6.576;2023-02-02T03:58:11;18.70;;;6.88;;
23228;SDS011;11783;50.350;6.576;2023-02-02T04:00:37;16.45;;;6.90;;
23228;SDS011;11783;50.350;6.576;2023-02-02T04:03:05;16.73;;;6.90;;
23228;SDS011;11783;50.350;6.576;2023-02-02T04:05:31;16.85;;;7.05;;
23228;SDS011;11783;50.350;6.576;2023-02-02T04:07:56;20.35;;;7.65;;
23228;SDS011;11783;50.350;6.576;2023-02-02T04:10:22;18.98;;;7.18;;
23228;SDS011;11783;50.350;6.576;2023-02-02T04:12:47;17.98;;;7.50;;
23228;SDS011;11783;50.350;6.576;2023-02-02T04:15:15;20.30;;;7.53;;
23228;SDS011;11783;50.350;6.576;2023-02-02T04:17:41;17.08;;;7.72;;
23228;SDS011;11783;50.350;6.576;2023-02-02T04:20:09;18.80;;;7.30;;
23228;SDS011;11783;50.350;6.576;2023-02-02T04:22:35;21.77;;;7.70;;
23228;SDS011;11783;50.350;6.576;2023-02-02T04:25:04;18.52;;;7.93;;
23228;SDS011;11783;50.350;6.576;2023-02-02T04:27:29;19.98;;;7.20;;
23228;SDS011;11783;50.350;6.576;2023-02-02T04:29:57;23.30;;;8.68;;
23228;SDS011;11783;50.350;6.576;2023-02-02T04:32:26;17.25;;;7.28;;
23228;SDS011;11783;50.350;6.576;2023-02-02T04:34:51;20.10;;;7.72;;
23228;SDS011;11783;50.350;6.576;2023-02-02T04:37:16;28.10;;;8.80;;
23228;SDS011;11783;50.350;6.576;2023-02-02T04:39:47;20.42;;;8.00;;
23228;SDS011;11783;50.350;6.576;2023-02-02T04:42:15;20.55;;;8.27;;
23228;SDS011;11783;50.350;6.576;2023-02-02T04:44:43;22.88;;;8.52;;
23228;SDS011;11783;50.350;6.576;2023-02-02T04:47:10;19.58;;;7.55;;
23228;SDS011;11783;50.350;6.576;2023-02-02T04:49:35;21.25;;;7.50;;
23228;SDS011;11783;50.350;6.576;2023-02-02T04:52:03;17.77;;;7.45;;
23228;SDS011;11783;50.350;6.576;2023-02-02T04:54:32;23.88;;;8.20;;
23228;SDS011;11783;50.350;6.576;2023-02-02T04:57:00;20.08;;;7.78;;
23228;SDS011;11783;50.350;6.576;2023-02-02T04:59:29;24.67;;;8.10;;
23228;SDS011;11783;50.350;6.576;2023-02-02T05:01:57;19.52;;;8.95;;
23228;SDS011;11783;50.350;6.576;2023-02-02T05:04:24;23.73;;;7.78;;
23228;SDS011;11783;50.350;6.576;2023-02-02T05:06:49;24.15;;;8.85;;
23228;SDS011;11783;50.350;6.576;2023-02-02T05:09:17;23.55;;;8.25;;
23228;SDS011;11783;50.350;6.576;2023-02-02T05:11:43;21.98;;;8.65;;
23228;SDS011;11783;50.350;6.576;2023-02-02T05:14:08;18.38;;;7.25;;
23228;SDS011;11783;50.350;6.576;2023-02-02T05:16:34;19.45;;;7.30;;
23228;SDS011;11783;50.350;6.576;2023-02-02T05:19:03;17.60;;;7.78;;
23228;SDS011;11783;50.350;6.576;2023-02-02T05:21:32;19.98;;;7.93;;
23228;SDS011;11783;50.350;6.576;2023-02-02T05:23:58;21.85;;;7.15;;
23228;SDS011;11783;50.350;6.576;2023-02-02T05:26:30;19.50;;;7.70;;
23228;SDS011;11783;50.350;6.576;2023-02-02T05:28:56;17.70;;;7.95;;
23228;SDS011;11783;50.350;6.576;2023-02-02T05:31:24;18.40;;;6.82;;
23228;SDS011;11783;50.350;6.576;2023-02-02T05:33:49;16.73;;;7.05;;
23228;SDS011;11783;50.350;6.576;2023-02-02T05:36:15;17.20;;;7.00;;
23228;SDS011;11783;50.350;6.576;2023-02-02T05:38:42;17.02;;;6.70;;
23228;SDS011;11783;50.350;6.576;2023-02-02T05:41:08;19.00;;;6.97;;
23228;SDS011;11783;50.350;6.576;2023-02-02T05:43:33;18.05;;;7.28;;
23228;SDS011;11783;50.350;6.576;2023-02-02T05:45:59;15.85;;;6.95;;
23228;SDS011;11783;50.350;6.576;2023-02-02T05:48:25;22.50;;;7.28;;
23228;SDS011;11783;50.350;6.576;2023-02-02T05:51:10;18.25;;;6.97;;
23228;SDS011;11783;50.350;6.576;2023-02-02T05:53:40;20.75;;;6.57;;
23228;SDS011;11783;50.350;6.576;2023-02-02T05:56:05;15.30;;;6.30;;
23228;SDS011;11783;50.350;6.576;2023-02-02T05:58:31;15.40;;;6.50;;
23228;SDS011;11783;50.350;6.576;2023-02-02T06:00:57;12.60;;;6.03;;
23228;SDS011;11783;50.350;6.576;2023-02-02T06:03:22;14.52;;;7.03;;
23228;SDS011;11783;50.350;6.576;2023-02-02T06:05:48;16.15;;;6.28;;
23228;SDS011;11783;50.350;6.576;2023-02-02T06:08:13;16.98;;;6.90;;
23228;SDS011;11783;50.350;6.576;2023-02-02T06:10:39;20.23;;;7.25;;
23228;SDS011;11783;50.350;6.576;2023-02-02T06:13:05;15.63;;;6.82;;
23228;SDS011;11783;50.350;6.576;2023-02-02T06:15:31;13.30;;;6.35;;
23228;SDS011;11783;50.350;6.576;2023-02-02T06:17:58;19.00;;;7.22;;
23228;SDS011;11783;50.350;6.576;2023-02-02T06:20:24;20.33;;;7.50;;
23228;SDS011;11783;50.350;6.576;2023-02-02T06:22:49;16.42;;;6.60;;
23228;SDS011;11783;50.350;6.576;2023-02-02T06:25:18;19.58;;;7.25;;
23228;SDS011;11783;50.350;6.576;2023-02-02T06:27:43;17.75;;;7.10;;
23228;SDS011;11783;50.350;6.576;2023-02-02T06:30:10;16.17;;;7.07;;
23228;SDS011;11783;50.350;6.576;2023-02-02T06:32:37;19.58;;;7.25;;
23228;SDS011;11783;50.350;6.576;2023-02-02T06:35:03;15.95;;;6.63;;
23228;SDS011;11783;50.350;6.576;2023-02-02T06:37:29;15.07;;;7.13;;
23228;SDS011;11783;50.350;6.576;2023-02-02T06:39:54;15.77;;;6.78;;
23228;SDS011;11783;50.350;6.576;2023-02-02T06:42:20;18.77;;;7.00;;
23228;SDS011;11783;50.350;6.576;2023-02-02T06:44:45;13.80;;;6.35;;
23228;SDS011;11783;50.350;6.576;2023-02-02T06:47:11;16.27;;;7.50;;
23228;SDS011;11783;50.350;6.576;2023-02-02T06:49:39;26.70;;;9.00;;
23228;SDS011;11783;50.350;6.576;2023-02-02T06:52:05;18.00;;;7.28;;
23228;SDS011;11783;50.350;6.576;2023-02-02T06:54:31;35.60;;;13.80;;
23228;SDS011;11783;50.350;6.576;2023-02-02T06:56:56;20.10;;;6.60;;
23228;SDS011;11783;50.350;6.576;2023-02-02T06:59:22;13.60;;;6.20;;
23228;SDS011;11783;50.350;6.576;2023-02-02T07:01:49;14.20;;;6.38;;
23228;SDS011;11783;50.350;6.576;2023-02-02T07:04:16;20.02;;;6.93;;
23228;SDS011;11783;50.350;6.576;2023-02-02T07:06:45;14.18;;;6.13;;
23228;SDS011;11783;50.350;6.576;2023-02-02T07:09:10;15.30;;;6.10;;
23228;SDS011;11783;50.350;6.576;2023-02-02T07:11:36;16.15;;;5.75;;
23228;SDS011;11783;50.350;6.576;2023-02-02T07:14:01;16.17;;;5.95;;
23228;SDS011;11783;50.350;6.576;2023-02-02T07:16:27;18.25;;;6.32;;
23228;SDS011;11783;50.350;6.576;2023-02-02T07:18:53;15.68;;;6.18;;
23228;SDS011;11783;50.350;6.576;2023-02-02T07:21:21;18.65;;;6.53;;
23228;SDS011;11783;50.350;6.576;2023-02-02T07:23:49;14.70;;;6.97;;
23228;SDS011;11783;50.350;6.576;2023-02-02T07:26:17;17.08;;;6.55;;
23228;SDS011;11783;50.350;6.576;2023-02-02T07:28:43;15.30;;;5.88;;
23228;SDS011;11783;50.350;6.576;2023-02-02T07:31:16;19.90;;;6.47;;
23228;SDS011;11783;50.350;6.576;2023-02-02T07:33:51;14.10;;;5.35;;
23228;SDS011;11783;50.350;6.576;2023-02-02T07:36:18;17.25;;;5.38;;
23228;SDS011;11783;50.350;6.576;2023-02-02T07:38:45;9.27;;;4.53;;
23228;SDS011;11783;50.350;6.576;2023-02-02T07:41:12;10.02;;;4.50;;
23228;SDS011;11783;50.350;6.576;2023-02-02T07:43:38;15.13;;;4.93;;
23228;SDS011;11783;50.350;6.576;2023-02-02T07:46:04;12.13;;;4.38;;
23228;SDS011;11783;50.350;6.576;2023-02-02T07:48:33;7.68;;;4.03;;
23228;SDS011;11783;50.350;6.576;2023-02-02T07:51:00;10.98;;;3.70;;
23228;SDS011;11783;50.350;6.576;2023-02-02T07:53:27;10.32;;;4.45;;
23228;SDS011;11783;50.350;6.576;2023-02-02T07:56:03;16.80;;;5.07;;
23228;SDS011;11783;50.350;6.576;2023-02-02T07:58:53;13.57;;;3.95;;
23228;SDS011;11783;50.350;6.576;2023-02-02T08:01:20;7.83;;;3.67;;
23228;SDS011;11783;50.350;6.576;2023-02-02T08:03:47;13.00;;;3.75;;
23228;SDS011;11783;50.350;6.576;2023-02-02T08:06:14;12.60;;;3.70;;
23228;SDS011;11783;50.350;6.576;2023-02-02T08:08:42;9.73;;;3.60;;
23228;SDS011;11783;50.350;6.576;2023-02-02T08:11:12;10.52;;;3.97;;
23228;SDS011;11783;50.350;6.576;2023-02-02T08:13:38;9.30;;;3.20;;
23228;SDS011;11783;50.350;6.576;2023-02-02T08:16:05;10.25;;;3.92;;
23228;SDS011;11783;50.350;6.576;2023-02-02T08:18:32;7.72;;;3.10;;
23228;SDS011;11783;50.350;6.576;2023-02-02T08:20:59;8.82;;;3.17;;
23228;SDS011;11783;50.350;6.576;2023-02-02T08:23:26;8.02;;;3.53;;
23228;SDS011;11783;50.350;6.576;2023-02-02T08:25:52;7.43;;;3.22;;
23228;SDS011;11783;50.350;6.576;2023-02-02T08:28:18;8.55;;;3.67;;
23228;SDS011;11783;50.350;6.576;2023-02-02T08:30:44;9.93;;;3.92;;
23228;SDS011;11783;50.350;6.576;2023-02-02T08:33:13;8.18;;;4.13;;
23228;SDS011;11783;50.350;6.576;2023-02-02T08:35:42;8.63;;;4.10;;
23228;SDS011;11783;50.350;6.576;2023-02-02T08:38:08;13.18;;;4.88;;
23228;SDS011;11783;50.350;6.576;2023-02-02T08:40:34;9.93;;;4.45;;
23228;SDS011;11783;50.350;6.576;2023-02-02T08:42:59;11.43;;;4.65;;
23228;SDS011;11783;50.350;6.576;2023-02-02T08:45:25;14.30;;;5.07;;
23228;SDS011;11783;50.350;6.576;2023-02-02T08:47:50;8.82;;;4.78;;
23228;SDS011;11783;50.350;6.576;2023-02-02T08:50:16;14.65;;;5.03;;
23228;SDS011;11783;50.350;6.576;2023-02-02T08:52:42;9.35;;;4.40;;
23228;SDS011;11783;50.350;6.576;2023-02-02T08:55:08;13.05;;;4.30;;
23228;SDS011;11783;50.350;6.576;2023-02-02T08:57:34;9.38;;;4.90;;
23228;SDS011;11783;50.350;6.576;2023-02-02T09:00:03;11.13;;;4.75;;
23228;SDS011;11783;50.350;6.576;2023-02-02T09:02:30;9.40;;;4.28;;
23228;SDS011;11783;50.350;6.576;2023-02-02T09:04:56;8.02;;;3.80;;
23228;SDS011;11783;50.350;6.576;2023-02-02T09:07:24;7.53;;;3.90;;
23228;SDS011;11783;50.350;6.576;2023-02-02T09:09:49;8.13;;;3.17;;
23228;SDS011;11783;50.350;6.576;2023-02-02T09:12:19;8.63;;;3.58;;
23228;SDS011;11783;50.350;6.576;2023-02-02T09:14:44;6.47;;;3.58;;
23228;SDS011;11783;50.350;6.576;2023-02-02T09:17:10;10.35;;;3.70;;
23228;SDS011;11783;50.350;6.576;2023-02-02T09:19:38;8.27;;;3.55;;
23228;SDS011;11783;50.350;6.576;2023-02-02T09:22:07;6.60;;;4.00;;
23228;SDS011;11783;50.350;6.576;2023-02-02T09:24:35;8.27;;;3.85;;
23228;SDS011;11783;50.350;6.576;2023-02-02T09:27:00;8.68;;;3.88;;
23228;SDS011;11783;50.350;6.576;2023-02-02T09:29:28;9.02;;;3.60;;
23228;SDS011;11783;50.350;6.576;2023-02-02T09:31:54;7.75;;;4.07;;
23228;SDS011;11783;50.350;6.576;2023-02-02T09:34:22;7.78;;;4.00;;
23228;SDS011;11783;50.350;6.576;2023-02-02T09:36:50;7.35;;;3.53;;
23228;SDS011;11783;50.350;6.576;2023-02-02T09:39:15;9.77;;;3.80;;
23228;SDS011;11783;50.350;6.576;2023-02-02T09:44:17;8.18;;;3.60;;
23228;SDS011;11783;50.350;6.576;2023-02-02T09:49:58;7.28;;;3.63;;
23228;SDS011;11783;50.350;6.576;2023-02-02T09:54:58;7.35;;;3.47;;
23228;SDS011;11783;50.350;6.576;2023-02-02T09:57:30;5.75;;;2.90;;
23228;SDS011;11783;50.350;6.576;2023-02-02T10:00:03;6.25;;;2.45;;
23228;SDS011;11783;50.350;6.576;2023-02-02T10:02:40;5.50;;;2.45;;
23228;SDS011;11783;50.350;6.576;2023-02-02T10:05:14;5.88;;;2.70;;
23228;SDS011;11783;50.350;6.576;2023-02-02T10:07:45;3.53;;;2.15;;
23228;SDS011;11783;50.350;6.576;2023-02-02T10:10:17;3.53;;;2.00;;
23228;SDS011;11783;50.350;6.576;2023-02-02T10:13:24;5.13;;;2.25;;
23228;SDS011;11783;50.350;6.576;2023-02-02T10:15:53;4.30;;;1.75;;
23228;SDS011;11783;50.350;6.576;2023-02-02T10:23:27;4.35;;;1.70;;
23228;SDS011;11783;50.350;6.576;2023-02-02T10:26:21;3.38;;;1.70;;
23228;SDS011;11783;50.350;6.576;2023-02-02T10:29:32;3.53;;;1.60;;
23228;SDS011;11783;50.350;6.576;2023-02-02T10:35:02;2.50;;;1.30;;
23228;SDS011;11783;50.350;6.576;2023-02-02T10:38:01;3.70;;;1.50;;
23228;SDS011;11783;50.350;6.576;2023-02-02T10:48:42;4.07;;;2.00;;
23228;SDS011;11783;50.350;6.576;2023-02-02T10:51:23;4.15;;;1.60;;
23228;SDS011;11783;50.350;6.576;2023-02-02T10:53:56;3.22;;;1.73;;
23228;SDS011;11783;50.350;6.576;2023-02-02T10:56:35;4.50;;;1.75;;
23228;SDS011;11783;50.350;6.576;2023-02-02T10:59:12;2.88;;;1.25;;
23228;SDS011;11783;50.350;6.576;2023-02-02T11:01:43;4.00;;;1.30;;
23228;SDS011;11783;50.350;6.576;2023-02-02T11:04:09;3.00;;;1.60;;
23228;SDS011;11783;50.350;6.576;2023-02-02T11:06:57;3.15;;;1.60;;
23228;SDS011;11783;50.350;6.576;2023-02-02T11:09:27;4.57;;;2.10;;
23228;SDS011;11783;50.350;6.576;2023-02-02T11:11:59;3.30;;;1.17;;
23228;SDS011;11783;50.350;6.576;2023-02-02T11:17:05;5.22;;;1.40;;
23228;SDS011;11783;50.350;6.576;2023-02-02T11:19:32;2.63;;;1.30;;
23228;SDS011;11783;50.350;6.576;2023-02-02T11:22:02;3.42;;;1.70;;
23228;SDS011;11783;50.350;6.576;2023-02-02T11:24:31;4.15;;;1.83;;
23228;SDS011;11783;50.350;6.576;2023-02-02T11:27:02;3.85;;;1.90;;
23228;SDS011;11783;50.350;6.576;2023-02-02T11:35:33;4.18;;;1.70;;
23228;SDS011;11783;50.350;6.576;2023-02-02T11:37:54;2.80;;;1.63;;
23228;SDS011;11783;50.350;6.576;2023-02-02T11:42:52;3.95;;;1.60;;
23228;SDS011;11783;50.350;6.576;2023-02-02T11:45:23;2.60;;;1.60;;
23228;SDS011;11783;50.350;6.576;2023-02-02T11:48:04;2.53;;;1.37;;
23228;SDS011;11783;50.350;6.576;2023-02-02T11:50:34;3.55;;;1.98;;
23228;SDS011;11783;50.350;6.576;2023-02-02T11:53:00;3.95;;;1.70;;
23228;SDS011;11783;50.350;6.576;2023-02-02T11:55:26;5.00;;;2.20;;
23228;SDS011;11783;50.350;6.576;2023-02-02T12:01:22;3.38;;;1.77;;
23228;SDS011;11783;50.350;6.576;2023-02-02T12:03:35;3.65;;;1.75;;
23228;SDS011;11783;50.350;6.576;2023-02-02T12:08:48;4.35;;;1.88;;
23228;SDS011;11783;50.350;6.576;2023-02-02T12:24:34;4.22;;;2.08;;
23228;SDS011;11783;50.350;6.576;2023-02-02T12:27:24;6.63;;;2.42;;
23228;SDS011;11783;50.350;6.576;2023-02-02T12:30:13;4.45;;;2.78;;
23228;SDS011;11783;50.350;6.576;2023-02-02T12:33:13;6.85;;;3.00;;
23228;SDS011;11783;50.350;6.576;2023-02-02T12:38:51;8.25;;;3.35;;
23228;SDS011;11783;50.350;6.576;2023-02-02T12:44:23;6.80;;;3.17;;
23228;SDS011;11783;50.350;6.576;2023-02-02T12:52:48;5.95;;;2.92;;
23228;SDS011;11783;50.350;6.576;2023-02-02T13:00:49;8.85;;;3.47;;
23228;SDS011;11783;50.350;6.576;2023-02-02T13:08:57;9.47;;;3.30;;
23228;SDS011;11783;50.350;6.576;2023-02-02T13:12:35;7.87;;;2.73;;
23228;SDS011;11783;50.350;6.576;2023-02-02T13:14:50;11.32;;;4.10;;
23228;SDS011;11783;50.350;6.576;2023-02-02T13:26:15;12.98;;;4.07;;
23228;SDS011;11783;50.350;6.576;2023-02-02T13:28:51;11.15;;;3.60;;
23228;SDS011;11783;50.350;6.576;2023-02-02T13:31:19;8.50;;;3.60;;
23228;SDS011;11783;50.350;6.576;2023-02-02T13:36:49;10.13;;;3.20;;
23228;SDS011;11783;50.350;6.576;2023-02-02T13:39:35;10.43;;;3.78;;
23228;SDS011;11783;50.350;6.576;2023-02-02T13:42:05;13.30;;;4.28;;
23228;SDS011;11783;50.350;6.576;2023-02-02T13:44:42;9.98;;;3.28;;
23228;SDS011;11783;50.350;6.576;2023-02-02T13:47:15;8.95;;;3.15;;
23228;SDS011;11783;50.350;6.576;2023-02-02T13:49:49;9.90;;;3.33;;
23228;SDS011;11783;50.350;6.576;2023-02-02T14:00:22;8.70;;;2.85;;
23228;SDS011;11783;50.350;6.576;2023-02-02T14:03:05;15.15;;;3.55;;
23228;SDS011;11783;50.350;6.576;2023-02-02T14:06:15;7.57;;;2.60;;
23228;SDS011;11783;50.350;6.576;2023-02-02T14:08:46;10.00;;;3.70;;
23228;SDS011;11783;50.350;6.576;2023-02-02T14:14:09;8.20;;;2.50;;
23228;SDS011;11783;50.350;6.576;2023-02-02T14:29:33;12.13;;;2.67;;
23228;SDS011;11783;50.350;6.576;2023-02-02T14:45:39;11.13;;;2.58;;
23228;SDS011;11783;50.350;6.576;2023-02-02T14:48:16;8.95;;;2.38;;
23228;SDS011;11783;50.350;6.576;2023-02-02T14:50:54;10.30;;;2.42;;
23228;SDS011;11783;50.350;6.576;2023-02-02T14:53:31;8.57;;;2.17;;
23228;SDS011;11783;50.350;6.576;2023-02-02T14:56:08;8.50;;;1.95;;
23228;SDS011;11783;50.350;6.576;2023-02-02T15:01:10;8.63;;;2.30;;
23228;SDS011;11783;50.350;6.576;2023-02-02T15:06:39;9.43;;;2.50;;
23228;SDS011;11783;50.350;6.576;2023-02-02T15:14:50;11.20;;;2.28;;
23228;SDS011;11783;50.350;6.576;2023-02-02T15:20:12;11.77;;;2.60;;
23228;SDS011;11783;50.350;6.576;2023-02-02T15:25:45;9.98;;;2.65;;
23228;SDS011;11783;50.350;6.576;2023-02-02T15:33:42;11.10;;;2.47;;
23228;SDS011;11783;50.350;6.576;2023-02-02T15:36:11;8.48;;;2.90;;
23228;SDS011;11783;50.350;6.576;2023-02-02T15:38:42;11.45;;;2.40;;
23228;SDS011;11783;50.350;6.576;2023-02-02T15:41:27;10.25;;;2.78;;
23228;SDS011;11783;50.350;6.576;2023-02-02T15:43:57;10.38;;;2.50;;
23228;SDS011;11783;50.350;6.576;2023-02-02T15:46:24;8.43;;;2.20;;
23228;SDS011;11783;50.350;6.576;2023-02-02T15:51:52;8.63;;;2.72;;
23228;SDS011;11783;50.350;6.576;2023-02-02T15:54:25;8.13;;;2.30;;
23228;SDS011;11783;50.350;6.576;2023-02-02T15:56:53;9.13;;;2.50;;
23228;SDS011;11783;50.350;6.576;2023-02-02T15:59:21;7.47;;;2.50;;
23228;SDS011;11783;50.350;6.576;2023-02-02T16:01:54;8.95;;;2.75;;
23228;SDS011;11783;50.350;6.576;2023-02-02T16:04:39;7.45;;;2.70;;
23228;SDS011;11783;50.350;6.576;2023-02-02T16:07:28;11.93;;;3.72;;
23228;SDS011;11783;50.350;6.576;2023-02-02T16:10:04;9.13;;;2.88;;
23228;SDS011;11783;50.350;6.576;2023-02-02T16:12:31;7.93;;;2.55;;
23228;SDS011;11783;50.350;6.576;2023-02-02T16:14:59;10.60;;;3.20;;
23228;SDS011;11783;50.350;6.576;2023-02-02T16:17:31;6.57;;;2.28;;
23228;SDS011;11783;50.350;6.576;2023-02-02T16:20:17;8.48;;;3.08;;
23228;SDS011;11783;50.350;6.576;2023-02-02T16:22:43;9.00;;;2.90;;
23228;SDS011;11783;50.350;6.576;2023-02-02T16:25:14;9.73;;;3.35;;
23228;SDS011;11783;50.350;6.576;2023-02-02T16:27:44;12.70;;;3.35;;
23228;SDS011;11783;50.350;6.576;2023-02-02T16:30:19;8.43;;;3.17;;
23228;SDS011;11783;50.350;6.576;2023-02-02T16:32:50;13.45;;;3.13;;
23228;SDS011;11783;50.350;6.576;2023-02-02T16:35:49;9.90;;;3.28;;
23228;SDS011;11783;50.350;6.576;2023-02-02T16:38:41;9.93;;;3.47;;
23228;SDS011;11783;50.350;6.576;2023-02-02T16:43:34;8.73;;;3.00;;
23228;SDS011;11783;50.350;6.576;2023-02-02T16:48:36;10.50;;;3.40;;
23228;SDS011;11783;50.350;6.576;2023-02-02T16:51:06;10.52;;;3.22;;
23228;SDS011;11783;50.350;6.576;2023-02-02T16:53:45;9.65;;;3.10;;
23228;SDS011;11783;50.350;6.576;2023-02-02T16:58:54;9.55;;;3.30;;
23228;SDS011;11783;50.350;6.576;2023-02-02T17:01:34;11.32;;;4.30;;
23228;SDS011;11783;50.350;6.576;2023-02-02T17:04:01;8.15;;;2.88;;
23228;SDS011;11783;50.350;6.576;2023-02-02T17:06:31;6.50;;;2.67;;
23228;SDS011;11783;50.350;6.576;2023-02-02T17:09:22;10.80;;;3.80;;
23228;SDS011;11783;50.350;6.576;2023-02-02T17:14:25;12.88;;;3.50;;
23228;SDS011;11783;50.350;6.576;2023-02-02T17:16:53;8.77;;;3.20;;
23228;SDS011;11783;50.350;6.576;2023-02-02T17:19:18;8.98;;;3.20;;
23228;SDS011;11783;50.350;6.576;2023-02-02T17:21:44;10.48;;;4.13;;
23228;SDS011;11783;50.350;6.576;2023-02-02T17:24:13;7.75;;;3.47;;
23228;SDS011;11783;50.350;6.576;2023-02-02T17:26:40;11.88;;;4.32;;
23228;SDS011;11783;50.350;6.576;2023-02-02T17:29:06;8.70;;;3.33;;
23228;SDS011;11783;50.350;6.576;2023-02-02T17:31:36;6.20;;;2.50;;
23228;SDS011;11783;50.350;6.576;2023-02-02T17:34:01;8.75;;;3.17;;
23228;SDS011;11783;50.350;6.576;2023-02-02T17:36:28;10.77;;;3.42;;
23228;SDS011;11783;50.350;6.576;2023-02-02T17:38:53;8.30;;;3.25;;
23228;SDS011;11783;50.350;6.576;2023-02-02T17:41:20;12.38;;;3.60;;
23228;SDS011;11783;50.350;6.576;2023-02-02T17:43:45;13.75;;;5.50;;
23228;SDS011;11783;50.350;6.576;2023-02-02T17:46:11;10.18;;;3.70;;
23228;SDS011;11783;50.350;6.576;2023-02-02T17:48:37;9.45;;;3.13;;
23228;SDS011;11783;50.350;6.576;2023-02-02T17:51:02;11.75;;;3.17;;
23228;SDS011;11783;50.350;6.576;2023-02-02T17:53:31;9.25;;;3.22;;
23228;SDS011;11783;50.350;6.576;2023-02-02T17:55:56;12.07;;;4.40;;
23228;SDS011;11783;50.350;6.576;2023-02-02T17:58:22;9.63;;;3.42;;
23228;SDS011;11783;50.350;6.576;2023-02-02T18:00:51;9.85;;;3.63;;
23228;SDS011;11783;50.350;6.576;2023-02-02T18:03:22;8.35;;;3.83;;
23228;SDS011;11783;50.350;6.576;2023-02-02T18:05:51;10.10;;;3.63;;